createdAt,value
2022-10-17T00:01:43.559Z,96.18
2022-10-17T00:04:09.831Z,95.35
2022-10-17T00:06:36.103Z,92.70
2022-10-17T00:09:02.352Z,100.50
2022-10-17T00:11:28.603Z,99.00
2022-10-17T00:13:54.888Z,107.40
2022-10-17T00:16:21.130Z,112.63
2022-10-17T00:18:47.392Z,129.07
2022-10-17T00:21:13.638Z,162.07
2022-10-17T00:23:39.903Z,234.40
2022-10-17T00:26:06.196Z,200.82
2022-10-17T00:28:32.521Z,165.73
2022-10-17T00:30:58.806Z,157.85
2022-10-17T00:33:25.062Z,159.23
2022-10-17T00:35:51.310Z,159.80
2022-10-17T00:38:17.605Z,158.77
2022-10-17T00:40:44.212Z,152.00
2022-10-17T00:43:10.486Z,133.70
2022-10-17T00:45:36.748Z,151.30
2022-10-17T00:48:03.838Z,170.07
2022-10-17T00:50:30.030Z,148.83
2022-10-17T00:52:56.324Z,139.50
2022-10-17T00:55:22.608Z,123.00
2022-10-17T00:57:48.864Z,102.53
2022-10-17T01:00:15.144Z,104.65
2022-10-17T01:02:41.426Z,118.22
2022-10-17T01:05:07.758Z,114.55
2022-10-17T01:07:37.140Z,169.85
2022-10-17T01:10:03.696Z,157.93
2022-10-17T01:12:30.292Z,113.15
2022-10-17T01:14:56.890Z,118.07
2022-10-17T01:17:23.157Z,124.85
2022-10-17T01:19:49.410Z,123.20
2022-10-17T01:22:15.660Z,124.65
2022-10-17T01:24:42.076Z,126.13
2022-10-17T01:27:08.325Z,125.30
2022-10-17T01:29:34.583Z,123.22
2022-10-17T01:32:00.896Z,127.85
2022-10-17T01:34:27.319Z,137.75
2022-10-17T01:36:53.578Z,129.48
2022-10-17T01:39:19.855Z,125.05
2022-10-17T01:41:46.107Z,144.23
2022-10-17T01:44:12.386Z,160.18
2022-10-17T01:46:38.698Z,118.60
2022-10-17T01:49:05.082Z,128.55
2022-10-17T01:51:31.324Z,88.10
2022-10-17T01:53:57.575Z,122.47
2022-10-17T01:56:23.824Z,134.52
2022-10-17T01:58:50.071Z,152.32
2022-10-17T02:01:16.482Z,246.80
2022-10-17T02:03:42.772Z,282.10
2022-10-17T02:06:09.036Z,289.48
2022-10-17T02:08:35.299Z,247.48
2022-10-17T02:11:01.567Z,264.55
2022-10-17T02:13:27.834Z,342.13
2022-10-17T02:15:54.096Z,373.88
2022-10-17T02:18:20.359Z,338.85
2022-10-17T02:20:46.626Z,376.85
2022-10-17T02:23:12.944Z,393.63
2022-10-17T02:25:40.133Z,397.13
2022-10-17T02:28:06.394Z,387.23
2022-10-17T02:30:32.655Z,376.02
2022-10-17T02:32:58.922Z,406.75
2022-10-17T02:35:25.191Z,442.13
2022-10-17T02:37:51.456Z,479.80
2022-10-17T02:40:17.707Z,459.88
2022-10-17T02:42:43.955Z,473.08
2022-10-17T02:45:10.205Z,447.58
2022-10-17T02:47:36.494Z,446.48
2022-10-17T02:50:02.754Z,442.60
2022-10-17T02:52:29.168Z,451.38
2022-10-17T02:54:55.618Z,419.92
2022-10-17T02:57:21.876Z,465.50
2022-10-17T02:59:48.152Z,429.30
2022-10-17T03:02:14.399Z,407.15
2022-10-17T03:04:40.664Z,442.05
2022-10-17T03:07:06.923Z,464.50
2022-10-17T03:09:33.187Z,417.10
2022-10-17T03:11:59.468Z,444.98
2022-10-17T03:14:25.734Z,440.73
2022-10-17T03:16:52.005Z,398.05
2022-10-17T03:19:18.255Z,453.55
2022-10-17T03:21:44.518Z,435.42
2022-10-17T03:24:10.787Z,446.73
2022-10-17T03:26:37.116Z,467.73
2022-10-17T03:29:03.556Z,496.48
2022-10-17T03:31:29.855Z,491.83
2022-10-17T03:33:56.130Z,405.10
2022-10-17T03:36:22.386Z,389.00
2022-10-17T03:38:48.635Z,363.13
2022-10-17T03:41:14.885Z,288.80
2022-10-17T03:43:41.146Z,250.10
2022-10-17T03:46:07.463Z,276.45
2022-10-17T03:48:33.794Z,275.23
2022-10-17T03:51:00.423Z,281.60
2022-10-17T03:53:29.931Z,211.80
2022-10-17T03:55:56.191Z,168.70
2022-10-17T03:58:22.474Z,177.63
2022-10-17T04:00:48.736Z,188.38
2022-10-17T04:03:17.204Z,273.85
2022-10-17T04:05:43.673Z,279.50
2022-10-17T04:08:09.931Z,230.77
2022-10-17T04:10:36.206Z,319.52
2022-10-17T04:13:02.484Z,279.40
2022-10-17T04:15:28.980Z,267.67
2022-10-17T04:17:55.271Z,244.38
2022-10-17T04:20:21.576Z,304.98
2022-10-17T04:22:47.959Z,352.95
2022-10-17T04:25:14.206Z,413.88
2022-10-17T04:27:40.467Z,398.33
2022-10-17T04:30:06.736Z,343.02
2022-10-17T04:32:33.207Z,278.25
2022-10-17T04:34:59.473Z,282.08
2022-10-17T04:37:25.723Z,271.02
2022-10-17T04:39:51.994Z,238.75
2022-10-17T04:42:18.259Z,291.77
2022-10-17T04:44:44.531Z,288.77
2022-10-17T04:47:10.810Z,276.52
2022-10-17T04:49:37.107Z,218.95
2022-10-17T04:52:03.477Z,180.90
2022-10-17T04:54:29.751Z,168.30
2022-10-17T04:56:56.055Z,172.25
2022-10-17T04:59:22.452Z,194.65
2022-10-17T05:01:48.714Z,201.45
2022-10-17T05:04:14.981Z,207.02
2022-10-17T05:06:41.402Z,228.50
2022-10-17T05:09:07.739Z,225.68
2022-10-17T05:11:33.996Z,173.68
2022-10-17T05:14:00.265Z,142.40
2022-10-17T05:16:26.532Z,138.40
2022-10-17T05:18:53.259Z,140.07
2022-10-17T05:21:19.634Z,138.55
2022-10-17T05:23:45.922Z,173.25
2022-10-17T05:26:12.179Z,185.77
2022-10-17T05:28:38.501Z,209.05
2022-10-17T05:31:04.855Z,266.73
2022-10-17T05:33:31.124Z,264.90
2022-10-17T05:35:57.387Z,242.48
2022-10-17T05:38:23.638Z,216.10
2022-10-17T05:40:49.899Z,183.73
2022-10-17T05:43:16.159Z,184.75
2022-10-17T05:45:42.410Z,183.27
2022-10-17T05:48:09.355Z,209.70
2022-10-17T05:50:35.613Z,265.52
2022-10-17T05:53:01.858Z,199.45
2022-10-17T05:55:28.114Z,182.30
2022-10-17T05:57:54.385Z,232.30
2022-10-17T06:00:20.652Z,179.23
2022-10-17T06:02:46.985Z,148.50
2022-10-17T06:05:13.254Z,182.20
2022-10-17T06:07:39.528Z,146.52
2022-10-17T06:10:05.797Z,177.43
2022-10-17T06:12:32.229Z,167.68
2022-10-17T06:14:58.888Z,149.77
2022-10-17T06:17:25.153Z,171.50
2022-10-17T06:19:51.418Z,180.65
2022-10-17T06:22:17.696Z,172.85
2022-10-17T06:24:43.950Z,186.43
2022-10-17T06:27:11.925Z,187.90
2022-10-17T06:29:38.482Z,228.73
2022-10-17T06:32:04.726Z,214.07
2022-10-17T06:34:31.040Z,211.95
2022-10-17T06:39:33.743Z,210.50
2022-10-17T06:42:00.117Z,219.35
2022-10-17T06:44:30.534Z,223.23
2022-10-17T06:46:56.826Z,210.20
2022-10-17T06:49:23.186Z,192.40
2022-10-17T06:51:49.439Z,218.50
2022-10-17T06:54:15.682Z,243.57
2022-10-17T06:56:41.944Z,248.73
2022-10-17T06:59:08.201Z,242.50
2022-10-17T07:01:34.480Z,270.85
2022-10-17T07:04:00.747Z,285.77
2022-10-17T07:06:27.048Z,272.40
2022-10-17T07:08:55.514Z,300.92
2022-10-17T07:11:21.829Z,329.30
2022-10-17T07:13:48.101Z,300.63
2022-10-17T07:16:14.356Z,234.65
2022-10-17T07:18:40.652Z,262.23
2022-10-17T07:21:08.431Z,273.83
2022-10-17T07:23:36.990Z,265.10
2022-10-17T07:26:03.242Z,287.77
2022-10-17T07:28:29.549Z,312.55
2022-10-17T07:30:55.841Z,273.90
2022-10-17T07:33:22.115Z,314.92
2022-10-17T07:35:48.694Z,340.35
2022-10-17T07:38:14.998Z,278.70
2022-10-17T07:40:41.255Z,254.48
2022-10-17T07:43:07.526Z,231.60
2022-10-17T07:45:33.795Z,274.60
2022-10-17T07:48:00.067Z,260.73
2022-10-17T07:50:26.357Z,242.57
2022-10-17T07:52:52.750Z,233.30
2022-10-17T07:55:19.006Z,226.00
2022-10-17T07:57:45.319Z,211.85
2022-10-17T08:00:11.579Z,211.75
2022-10-17T08:02:38.080Z,219.25
2022-10-17T08:05:04.374Z,265.88
2022-10-17T08:07:30.710Z,234.75
2022-10-17T08:09:57.167Z,210.50
2022-10-17T08:12:24.215Z,153.90
2022-10-17T08:14:50.406Z,275.10
2022-10-17T08:17:16.665Z,262.05
2022-10-17T08:19:44.859Z,271.70
2022-10-17T08:22:11.123Z,147.15
2022-10-17T08:24:37.753Z,1999.90
2022-10-17T08:27:11.115Z,1999.90
2022-10-17T08:29:37.409Z,1999.90
2022-10-17T08:32:05.478Z,1999.90
2022-10-17T08:34:32.788Z,1999.90
2022-10-17T08:36:59.149Z,1999.90
2022-10-17T08:39:25.476Z,1999.90
2022-10-17T08:41:51.737Z,1999.90
2022-10-17T08:44:18.000Z,1999.90
2022-10-17T08:46:44.285Z,1999.90
2022-10-17T08:49:12.057Z,1999.90
2022-10-17T08:54:05.175Z,1999.90
2022-10-17T08:56:44.600Z,1999.90
2022-10-17T08:59:15.159Z,1999.90
2022-10-17T09:01:41.436Z,1999.90
2022-10-17T09:04:07.735Z,1999.90
2022-10-17T09:06:34.029Z,1999.90
2022-10-17T09:09:00.315Z,1999.90
2022-10-17T09:11:26.582Z,1999.90
2022-10-17T09:13:52.836Z,1999.90
2022-10-17T09:16:19.411Z,1999.90
2022-10-17T09:18:45.666Z,1999.90
2022-10-17T09:21:12.254Z,1999.90
2022-10-17T09:23:40.438Z,1999.90
2022-10-17T09:26:08.752Z,1999.90
2022-10-17T09:28:35.110Z,1999.90
2022-10-17T09:31:01.471Z,1999.90
2022-10-17T09:33:42.207Z,1999.90
2022-10-17T09:36:16.034Z,1999.90
2022-10-17T09:38:42.340Z,1999.90
2022-10-17T09:41:25.587Z,1999.90
2022-10-17T09:43:54.863Z,1999.90
2022-10-17T09:46:21.124Z,1999.90
2022-10-17T09:48:49.822Z,1999.90
2022-10-17T09:51:25.866Z,1999.90
2022-10-17T09:53:52.635Z,1999.90
2022-10-17T09:56:18.887Z,1999.90
2022-10-17T09:58:45.163Z,1999.90
2022-10-17T10:01:11.511Z,1999.90
2022-10-17T10:03:37.819Z,1999.90
2022-10-17T10:06:04.128Z,1999.90
2022-10-17T10:08:30.485Z,1999.90
2022-10-17T10:10:56.748Z,1999.90
2022-10-17T10:13:23.017Z,1999.90
2022-10-17T10:15:49.279Z,1999.90
2022-10-17T10:18:15.540Z,1999.90
2022-10-17T10:20:46.587Z,1999.90
2022-10-17T10:23:13.564Z,1999.90
2022-10-17T10:25:39.772Z,1999.90
2022-10-17T10:28:06.055Z,1999.90
2022-10-17T10:30:36.127Z,1999.90
2022-10-17T10:33:05.351Z,1999.90
2022-10-17T10:35:31.607Z,1999.90
2022-10-17T10:37:57.892Z,1999.90
2022-10-17T10:40:24.167Z,1999.90
2022-10-17T10:42:50.426Z,1999.90
2022-10-17T10:45:29.213Z,1999.90
2022-10-17T10:48:02.938Z,1999.90
2022-10-17T10:50:29.305Z,1999.90
2022-10-17T10:52:55.590Z,1999.90
2022-10-17T10:55:22.329Z,1999.90
2022-10-17T10:57:48.591Z,1999.90
2022-10-17T11:00:15.441Z,1999.90
2022-10-17T11:02:41.710Z,1999.90
2022-10-17T11:05:07.977Z,1999.90
2022-10-17T11:07:34.301Z,1999.90
2022-10-17T11:10:00.575Z,1999.90
2022-10-17T11:12:26.858Z,1999.90
2022-10-17T11:14:53.122Z,1999.90
2022-10-17T11:17:19.386Z,1999.90
2022-10-17T11:19:47.375Z,1999.90
2022-10-17T11:22:13.660Z,1999.90
2022-10-17T11:24:39.940Z,1999.90
2022-10-17T11:27:06.199Z,1999.90
2022-10-17T11:29:32.566Z,1999.90
2022-10-17T11:31:58.836Z,1999.90
2022-10-17T11:34:25.112Z,1999.90
2022-10-17T11:36:51.372Z,1999.90
2022-10-17T11:39:17.654Z,1999.90
2022-10-17T11:41:43.925Z,1999.90
2022-10-17T11:44:10.214Z,1999.90
2022-10-17T11:46:36.466Z,1999.90
2022-10-17T11:49:02.744Z,1999.90
2022-10-17T11:54:15.275Z,1999.90
2022-10-17T11:56:42.994Z,1999.90
2022-10-17T12:01:35.603Z,1999.90
2022-10-17T12:04:01.955Z,1999.90
2022-10-17T12:06:29.429Z,1999.90
2022-10-17T12:08:56.430Z,1999.90
2022-10-17T12:11:22.731Z,1999.90
2022-10-17T12:13:49.129Z,1999.90
2022-10-17T12:16:17.556Z,1999.90
2022-10-17T12:18:43.979Z,1999.90
2022-10-17T12:21:10.241Z,1999.90
2022-10-17T12:23:38.783Z,1999.90
2022-10-17T12:26:05.535Z,1999.90
2022-10-17T12:28:32.022Z,1999.90
2022-10-17T12:30:58.366Z,1999.90
2022-10-17T12:33:26.624Z,1999.90
2022-10-17T12:35:52.886Z,1999.90
2022-10-17T12:38:19.181Z,1999.90
2022-10-17T12:40:49.064Z,1999.90
2022-10-17T12:43:15.630Z,1999.90
2022-10-17T12:45:41.911Z,1999.90
2022-10-17T12:48:08.240Z,1999.90
2022-10-17T12:50:38.005Z,1999.90
2022-10-17T12:53:04.438Z,1999.90
2022-10-17T12:55:30.690Z,1999.90
2022-10-17T12:57:57.046Z,1999.90
2022-10-17T13:00:23.347Z,1999.90
2022-10-17T13:02:49.668Z,1999.90
2022-10-17T13:05:15.918Z,1999.90
2022-10-17T13:07:42.181Z,1999.90
2022-10-17T13:10:09.511Z,1999.90
2022-10-17T13:12:41.235Z,1999.90
2022-10-17T13:15:09.808Z,1999.90
2022-10-17T13:17:36.811Z,1999.90
2022-10-17T13:20:03.604Z,1999.90
2022-10-17T13:22:30.224Z,1999.90
2022-10-17T13:24:56.730Z,1999.90
2022-10-17T13:27:23.035Z,1999.90
2022-10-17T13:29:49.315Z,1999.90
2022-10-17T13:32:15.576Z,1999.90
2022-10-17T13:34:41.822Z,1999.90
2022-10-17T13:37:08.074Z,1999.90
2022-10-17T13:39:54.528Z,1999.90
2022-10-17T13:44:47.980Z,1999.90
2022-10-17T13:47:14.450Z,1999.90
2022-10-17T13:49:40.951Z,1999.90
2022-10-17T13:52:07.227Z,1999.90
2022-10-17T13:54:33.539Z,1999.90
2022-10-17T13:56:59.834Z,1999.90
2022-10-17T13:59:26.111Z,1999.90
2022-10-17T14:01:52.385Z,1999.90
2022-10-17T14:04:20.485Z,1999.90
2022-10-17T14:06:49.672Z,1999.90
2022-10-17T14:09:18.352Z,1999.90
2022-10-17T14:11:44.612Z,1999.90
2022-10-17T14:14:10.882Z,1999.90
2022-10-17T14:16:37.168Z,1999.90
2022-10-17T14:19:03.458Z,1999.90
2022-10-17T14:21:40.907Z,1999.90
2022-10-17T14:24:09.859Z,1999.90
2022-10-17T14:26:37.287Z,1999.90
2022-10-17T14:29:03.605Z,1999.90
2022-10-17T14:31:29.987Z,1999.90
2022-10-17T14:33:56.254Z,1999.90
2022-10-17T14:36:22.533Z,1999.90
2022-10-17T14:38:48.807Z,1999.90
2022-10-17T14:41:41.502Z,1999.90
2022-10-17T14:44:01.315Z,1999.90
2022-10-17T14:46:27.579Z,1999.90
2022-10-17T14:48:53.923Z,1999.90
2022-10-17T14:51:20.213Z,1999.90
2022-10-17T14:53:46.528Z,1999.90
2022-10-17T14:56:12.781Z,1999.90
2022-10-17T14:58:39.055Z,1999.90
2022-10-17T15:01:05.311Z,1999.90
2022-10-17T15:03:31.618Z,1999.90
2022-10-17T15:05:58.388Z,1999.90
2022-10-17T15:08:24.964Z,1999.90
2022-10-17T15:10:51.318Z,1999.90
2022-10-17T15:13:39.957Z,1999.90
2022-10-17T15:16:03.894Z,1999.90
2022-10-17T15:18:30.199Z,1999.90
2022-10-17T15:21:04.982Z,1999.90
2022-10-17T15:23:32.953Z,1999.90
2022-10-17T15:25:59.251Z,1999.90
2022-10-17T15:28:27.220Z,1999.90
2022-10-17T15:30:53.568Z,1999.90
2022-10-17T15:33:19.855Z,1999.90
2022-10-17T15:35:46.211Z,1999.90
2022-10-17T15:38:12.554Z,1999.90
2022-10-17T15:40:38.817Z,1999.90
2022-10-17T15:43:05.146Z,1999.90
2022-10-17T15:45:31.448Z,1999.90
2022-10-17T15:47:57.725Z,1999.90
2022-10-17T15:50:24.032Z,1999.90
2022-10-17T15:52:53.374Z,1999.90
2022-10-17T15:55:19.683Z,1999.90
2022-10-17T15:57:45.936Z,1999.90
2022-10-17T16:00:16.345Z,1999.90
2022-10-17T16:02:43.058Z,1999.90
2022-10-17T16:05:09.308Z,1999.90
2022-10-17T16:07:36.774Z,1999.90
2022-10-17T16:10:03.168Z,1999.90
2022-10-17T16:12:31.009Z,1999.90
2022-10-17T16:17:23.559Z,1999.90
2022-10-17T16:19:49.943Z,1999.90
2022-10-17T16:22:16.350Z,1999.90
2022-10-17T16:24:42.611Z,1999.90
2022-10-17T16:27:09.136Z,1999.90
2022-10-17T16:29:35.398Z,1999.90
2022-10-17T16:32:01.661Z,1999.90
2022-10-17T16:34:27.979Z,1999.90
2022-10-17T16:36:54.259Z,1999.90
2022-10-17T16:39:20.598Z,1999.90
2022-10-17T16:41:46.912Z,1999.90
2022-10-17T16:44:14.541Z,1999.90
2022-10-17T16:46:40.815Z,1999.90
2022-10-17T16:49:07.085Z,1999.90
2022-10-17T16:51:35.698Z,1999.90
2022-10-17T16:54:01.970Z,1999.90
2022-10-17T16:56:32.599Z,1999.90
2022-10-17T16:58:58.882Z,1999.90
2022-10-17T17:01:25.146Z,1999.90
2022-10-17T17:03:51.445Z,1999.90
2022-10-17T17:06:19.113Z,1999.90
2022-10-17T17:08:45.481Z,1999.90
2022-10-17T17:11:11.734Z,1999.90
2022-10-17T17:13:37.999Z,1999.90
2022-10-17T17:16:04.288Z,1999.90
2022-10-17T17:18:30.870Z,1999.90
2022-10-17T17:20:57.134Z,1999.90
2022-10-17T17:23:23.378Z,1999.90
2022-10-17T17:25:50.610Z,1999.90
2022-10-17T17:28:16.890Z,1999.90
2022-10-17T17:30:43.158Z,1999.90
2022-10-17T17:33:09.406Z,1999.90
2022-10-17T17:35:35.693Z,1999.90
2022-10-17T17:38:02.973Z,1999.90
2022-10-17T17:40:29.227Z,1999.90
2022-10-17T17:42:55.601Z,1999.90
2022-10-17T17:45:21.868Z,1999.90
2022-10-17T17:47:48.128Z,1999.90
2022-10-17T17:50:14.452Z,1999.90
2022-10-17T17:52:42.157Z,1999.90
2022-10-17T17:55:08.417Z,1999.90
2022-10-17T17:57:34.679Z,1999.90
2022-10-17T18:00:00.956Z,1999.90
2022-10-17T18:02:27.259Z,1999.90
2022-10-17T18:04:53.564Z,1999.90
2022-10-17T18:07:19.863Z,1999.90
2022-10-17T18:09:46.128Z,1999.90
2022-10-17T18:12:12.440Z,1999.90
2022-10-17T18:14:38.701Z,1999.90
2022-10-17T18:17:04.976Z,1999.90
2022-10-17T18:19:31.228Z,1999.90
2022-10-17T18:21:57.708Z,1999.90
2022-10-17T18:24:24.007Z,1999.90
2022-10-17T18:26:50.993Z,1999.90
2022-10-17T18:29:17.191Z,1999.90
2022-10-17T18:31:43.544Z,1999.90
2022-10-17T18:34:09.950Z,1999.90
2022-10-17T18:36:37.688Z,1999.90
2022-10-17T18:39:03.942Z,1999.90
2022-10-17T18:41:30.206Z,1999.90
2022-10-17T18:43:56.527Z,1999.90
2022-10-17T18:46:22.819Z,1999.90
2022-10-17T18:48:49.066Z,1999.90
2022-10-17T18:51:15.314Z,1999.90
2022-10-17T18:53:41.571Z,1999.90
2022-10-17T18:56:07.849Z,1999.90
2022-10-17T18:58:34.106Z,1999.90
2022-10-17T19:01:00.400Z,1999.90
2022-10-17T19:03:26.659Z,1999.90
2022-10-17T19:05:54.866Z,1999.90
2022-10-17T19:08:23.026Z,1999.90
2022-10-17T19:10:49.338Z,1999.90
2022-10-17T19:13:20.706Z,1999.90
2022-10-17T19:15:47.926Z,1999.90
2022-10-17T19:18:14.199Z,1999.90
2022-10-17T19:20:40.456Z,1999.90
2022-10-17T19:23:06.718Z,1999.90
2022-10-17T19:25:32.974Z,1999.90
2022-10-17T19:27:59.223Z,1999.90
2022-10-17T19:30:25.624Z,1999.90
2022-10-17T19:32:51.871Z,1999.90
2022-10-17T19:35:18.128Z,1999.90
2022-10-17T19:37:44.379Z,1999.90
2022-10-17T19:40:10.678Z,1999.90
2022-10-17T19:42:36.950Z,1999.90
2022-10-17T19:45:03.211Z,1999.90
2022-10-17T19:47:29.481Z,1999.90
2022-10-17T19:49:55.765Z,1999.90
2022-10-17T19:52:22.056Z,1999.90
2022-10-17T19:54:48.335Z,1999.90
2022-10-17T19:57:14.592Z,1999.90
2022-10-17T19:59:40.862Z,1999.90
2022-10-17T20:02:07.136Z,1999.90
2022-10-17T20:04:33.390Z,1999.90
2022-10-17T20:07:00.038Z,1999.90
2022-10-17T20:09:26.358Z,1999.90
2022-10-17T20:11:52.616Z,1999.90
2022-10-17T20:14:18.880Z,1999.90
2022-10-17T20:16:50.106Z,1999.90
2022-10-17T20:19:16.375Z,1999.90
2022-10-17T20:21:42.660Z,1999.90
2022-10-17T20:24:08.936Z,1999.90
2022-10-17T20:26:39.409Z,1999.90
2022-10-17T20:29:08.547Z,1999.90
2022-10-17T20:31:35.078Z,98.22
2022-10-17T20:34:01.359Z,90.32
2022-10-17T20:36:27.608Z,84.55
2022-10-17T20:38:54.175Z,93.10
2022-10-17T20:41:20.465Z,99.28
2022-10-17T20:43:46.779Z,144.73
2022-10-17T20:46:29.478Z,157.77
2022-10-17T20:48:59.632Z,113.03
2022-10-17T20:51:26.308Z,104.15
2022-10-17T20:53:52.581Z,95.30
2022-10-17T20:56:18.900Z,124.07
2022-10-17T20:58:45.180Z,133.57
2022-10-17T21:01:11.568Z,157.50
2022-10-17T21:03:39.897Z,176.38
2022-10-17T21:06:08.801Z,119.22
2022-10-17T21:08:35.052Z,105.07
2022-10-17T21:11:01.299Z,100.75
2022-10-17T21:13:27.551Z,115.35
2022-10-17T21:15:53.822Z,132.13
2022-10-17T21:18:20.085Z,135.95
2022-10-17T21:20:46.340Z,115.35
2022-10-17T21:23:12.693Z,171.38
2022-10-17T21:25:40.747Z,183.00
2022-10-17T21:28:07.330Z,172.65
2022-10-17T21:30:33.576Z,184.88
2022-10-17T21:32:59.845Z,149.02
2022-10-17T21:35:26.113Z,145.65
2022-10-17T21:37:52.376Z,157.05
2022-10-17T21:40:18.732Z,172.27
2022-10-17T21:42:44.989Z,147.80
2022-10-17T21:45:15.688Z,287.17
2022-10-17T21:48:11.254Z,294.30
2022-10-17T21:50:32.690Z,268.17
2022-10-17T21:52:58.948Z,279.02
2022-10-17T21:55:25.231Z,351.20
2022-10-17T21:57:51.497Z,346.75
2022-10-17T22:00:17.750Z,136.40
2022-10-17T22:02:44.008Z,275.95
2022-10-17T22:05:10.296Z,302.45
2022-10-17T22:07:36.558Z,260.60
2022-10-17T22:10:02.813Z,392.83
2022-10-17T22:12:29.454Z,242.15
2022-10-17T22:14:56.001Z,196.57
2022-10-17T22:17:22.263Z,147.20
2022-10-17T22:19:48.536Z,202.85
2022-10-17T22:22:14.786Z,163.77
2022-10-17T22:24:41.038Z,183.00
2022-10-17T22:27:09.650Z,140.75
2022-10-17T22:29:35.940Z,137.82
2022-10-17T22:32:02.186Z,148.57
2022-10-17T22:34:28.491Z,128.95
2022-10-17T22:36:54.750Z,137.75
2022-10-17T22:39:21.019Z,164.23
2022-10-17T22:41:47.279Z,104.80
2022-10-17T22:44:13.690Z,99.25
2022-10-17T22:46:39.942Z,107.03
2022-10-17T22:49:06.193Z,95.20
2022-10-17T22:51:32.452Z,85.28
2022-10-17T22:53:58.712Z,109.63
2022-10-17T22:56:25.062Z,101.88
2022-10-17T22:58:51.329Z,99.85
2022-10-17T23:01:17.632Z,101.72
2022-10-17T23:03:43.959Z,173.77
2022-10-17T23:06:10.222Z,175.77
2022-10-17T23:08:36.472Z,124.22
2022-10-17T23:11:02.713Z,98.35
2022-10-17T23:13:28.983Z,208.05
2022-10-17T23:15:55.254Z,103.72
2022-10-17T23:18:21.526Z,104.38
2022-10-17T23:20:47.951Z,107.25
2022-10-17T23:23:14.201Z,112.65
2022-10-17T23:25:40.500Z,107.25
2022-10-17T23:28:08.211Z,96.82
2022-10-17T23:30:34.496Z,112.05
2022-10-17T23:33:00.759Z,94.70
2022-10-17T23:35:27.020Z,116.85
2022-10-17T23:37:53.341Z,105.28
2022-10-17T23:40:19.596Z,97.85
2022-10-17T23:42:45.842Z,97.82
2022-10-17T23:45:12.091Z,93.05
2022-10-17T23:47:38.352Z,96.20
2022-10-17T23:50:04.600Z,93.13
2022-10-17T23:52:30.847Z,92.20
2022-10-17T23:54:57.357Z,104.75
2022-10-17T23:57:23.614Z,98.45
2022-10-17T23:59:49.867Z,102.47
